Etusivu
METAR-TAF:

METAR-TAF

Lentoasemat :

Honningsvåg, Norja

Leveyspiiri: 71-01N, Pituuspiiri: 025-59E, korkeus merenpinnasta: 1 m

Tämänhetkinen sää

Tämä raportti tehtiin 1 tunti ja 22 minuuttia sitten, kello 11.20 UTC
Tuuli 13 kn etelästä/lounaasta
Lämpötila 4°C
Kosteus 81%
Ilmanpaine 998 hPa
Näkyvyys 10 km tai enemmän
Hajanaisia pilviä 1300 ft:n korkeudessa
Hajonneita pilviä 2500 ft:n korkeudessa
sadekuuroja näköpiirissä

METAR: ENHV 251120Z 20013KT 9999 VCSH SCT013 BKN025 04/01 Q0998

Aika: 14:42 (12:42 UTC)


TAF: puuttuu

Säähavainnot ja -ennusteet yli 4000 lentoasemalta (METAR- ja TAF-raportit).

Käytössä olevat sääasemat on merkitty karttaan keltaisilla ja punaisilla pisteillä.

Aseta hiiri pisteen päälle nähdäksesi sääaseman nimen.

Klikkaa sitten nähdäksesi säähavainnot ja -ennusteet.

Kartan vaihtaminen: klikkaa mustalla rastilla varustettuja vihreitä pisteitä, niin voit zoomata sisään; viivalla varustettua vihreää pistettä, niin voit zoomata ulos tai vihreitä nuolia, niin pääset viereisille kartoille.


METAR-TAF: